sensor_id;sensor_type;location;lat;lon;timestamp;P1;durP1;ratioP1;P2;durP2;ratioP2
57333;SDS011;43165;50.998;18.164;2022-09-13T00:00:38;21.10;;;19.10;;
57333;SDS011;43165;50.998;18.164;2022-09-13T00:03:05;21.00;;;18.70;;
57333;SDS011;43165;50.998;18.164;2022-09-13T00:05:31;19.50;;;17.60;;
57333;SDS011;43165;50.998;18.164;2022-09-13T00:07:57;19.50;;;17.40;;
57333;SDS011;43165;50.998;18.164;2022-09-13T00:10:23;22.10;;;19.90;;
57333;SDS011;43165;50.998;18.164;2022-09-13T00:12:49;24.30;;;21.30;;
57333;SDS011;43165;50.998;18.164;2022-09-13T00:15:15;33.50;;;24.40;;
57333;SDS011;43165;50.998;18.164;2022-09-13T00:17:40;30.90;;;26.10;;
57333;SDS011;43165;50.998;18.164;2022-09-13T00:20:07;30.40;;;25.40;;
57333;SDS011;43165;50.998;18.164;2022-09-13T00:22:34;29.30;;;26.10;;
57333;SDS011;43165;50.998;18.164;2022-09-13T00:25:00;26.30;;;23.60;;
57333;SDS011;43165;50.998;18.164;2022-09-13T00:27:26;24.80;;;21.30;;
57333;SDS011;43165;50.998;18.164;2022-09-13T00:29:51;21.40;;;19.30;;
57333;SDS011;43165;50.998;18.164;2022-09-13T00:32:17;20.90;;;18.80;;
57333;SDS011;43165;50.998;18.164;2022-09-13T00:34:42;20.00;;;18.00;;
57333;SDS011;43165;50.998;18.164;2022-09-13T00:37:07;20.10;;;16.10;;
57333;SDS011;43165;50.998;18.164;2022-09-13T00:39:34;18.80;;;16.90;;
57333;SDS011;43165;50.998;18.164;2022-09-13T00:42:00;24.00;;;18.20;;
57333;SDS011;43165;50.998;18.164;2022-09-13T00:44:46;20.30;;;17.10;;
57333;SDS011;43165;50.998;18.164;2022-09-13T00:47:14;20.40;;;18.20;;
57333;SDS011;43165;50.998;18.164;2022-09-13T00:49:45;24.00;;;20.10;;
57333;SDS011;43165;50.998;18.164;2022-09-13T00:52:13;25.60;;;21.70;;
57333;SDS011;43165;50.998;18.164;2022-09-13T00:54:48;35.50;;;31.10;;
57333;SDS011;43165;50.998;18.164;2022-09-13T00:57:16;50.50;;;43.20;;
57333;SDS011;43165;50.998;18.164;2022-09-13T00:59:44;66.00;;;51.30;;
57333;SDS011;43165;50.998;18.164;2022-09-13T01:02:12;65.20;;;50.70;;
57333;SDS011;43165;50.998;18.164;2022-09-13T01:04:38;49.30;;;41.00;;
57333;SDS011;43165;50.998;18.164;2022-09-13T01:07:06;41.30;;;33.40;;
57333;SDS011;43165;50.998;18.164;2022-09-13T01:09:34;44.00;;;34.70;;
57333;SDS011;43165;50.998;18.164;2022-09-13T01:14:56;33.60;;;27.80;;
57333;SDS011;43165;50.998;18.164;2022-09-13T01:17:25;29.50;;;26.40;;
57333;SDS011;43165;50.998;18.164;2022-09-13T01:19:51;32.00;;;26.80;;
57333;SDS011;43165;50.998;18.164;2022-09-13T01:28:09;33.30;;;29.10;;
57333;SDS011;43165;50.998;18.164;2022-09-13T01:30:45;32.30;;;28.80;;
57333;SDS011;43165;50.998;18.164;2022-09-13T01:57:47;83.80;;;31.50;;
57333;SDS011;43165;50.998;18.164;2022-09-13T02:00:18;39.30;;;30.40;;
57333;SDS011;43165;50.998;18.164;2022-09-13T02:02:45;425.70;;;33.20;;
57333;SDS011;43165;50.998;18.164;2022-09-13T02:05:14;161.90;;;26.70;;
57333;SDS011;43165;50.998;18.164;2022-09-13T02:08:00;64.40;;;24.90;;
57333;SDS011;43165;50.998;18.164;2022-09-13T02:10:37;32.50;;;25.50;;
57333;SDS011;43165;50.998;18.164;2022-09-13T02:13:06;28.20;;;24.10;;
57333;SDS011;43165;50.998;18.164;2022-09-13T02:15:37;32.50;;;23.80;;
57333;SDS011;43165;50.998;18.164;2022-09-13T02:18:07;27.40;;;23.70;;
57333;SDS011;43165;50.998;18.164;2022-09-13T02:20:39;24.20;;;21.60;;
57333;SDS011;43165;50.998;18.164;2022-09-13T02:23:31;29.20;;;22.40;;
57333;SDS011;43165;50.998;18.164;2022-09-13T02:25:57;21.40;;;19.30;;
57333;SDS011;43165;50.998;18.164;2022-09-13T02:28:27;22.70;;;20.00;;
57333;SDS011;43165;50.998;18.164;2022-09-13T02:31:28;20.20;;;18.10;;
57333;SDS011;43165;50.998;18.164;2022-09-13T02:33:58;20.80;;;18.80;;
57333;SDS011;43165;50.998;18.164;2022-09-13T02:36:32;18.50;;;16.80;;
57333;SDS011;43165;50.998;18.164;2022-09-13T02:39:04;19.70;;;17.80;;
57333;SDS011;43165;50.998;18.164;2022-09-13T02:41:38;20.90;;;17.20;;
57333;SDS011;43165;50.998;18.164;2022-09-13T02:52:21;17.30;;;15.80;;
57333;SDS011;43165;50.998;18.164;2022-09-13T02:54:52;33.40;;;19.70;;
57333;SDS011;43165;50.998;18.164;2022-09-13T03:00:07;23.60;;;20.80;;
57333;SDS011;43165;50.998;18.164;2022-09-13T03:02:33;22.70;;;20.50;;
57333;SDS011;43165;50.998;18.164;2022-09-13T03:05:00;20.90;;;19.00;;
57333;SDS011;43165;50.998;18.164;2022-09-13T03:07:26;24.40;;;21.90;;
57333;SDS011;43165;50.998;18.164;2022-09-13T03:09:53;26.60;;;23.90;;
57333;SDS011;43165;50.998;18.164;2022-09-13T03:12:28;30.50;;;26.90;;
57333;SDS011;43165;50.998;18.164;2022-09-13T03:15:06;27.80;;;25.00;;
57333;SDS011;43165;50.998;18.164;2022-09-13T03:17:45;28.70;;;25.60;;
57333;SDS011;43165;50.998;18.164;2022-09-13T03:26:13;33.90;;;27.40;;
57333;SDS011;43165;50.998;18.164;2022-09-13T03:28:52;31.60;;;28.40;;
57333;SDS011;43165;50.998;18.164;2022-09-13T03:31:33;36.80;;;27.10;;
57333;SDS011;43165;50.998;18.164;2022-09-13T03:34:11;23.30;;;20.90;;
57333;SDS011;43165;50.998;18.164;2022-09-13T03:39:11;19.50;;;17.60;;
57333;SDS011;43165;50.998;18.164;2022-09-13T03:41:46;19.00;;;17.30;;
57333;SDS011;43165;50.998;18.164;2022-09-13T03:44:15;23.60;;;21.20;;
57333;SDS011;43165;50.998;18.164;2022-09-13T03:46:45;27.10;;;21.80;;
57333;SDS011;43165;50.998;18.164;2022-09-13T03:49:13;40.50;;;22.70;;
57333;SDS011;43165;50.998;18.164;2022-09-13T03:51:40;274.20;;;29.20;;
57333;SDS011;43165;50.998;18.164;2022-09-13T03:54:18;458.90;;;37.90;;
57333;SDS011;43165;50.998;18.164;2022-09-13T03:59:34;356.90;;;36.10;;
57333;SDS011;43165;50.998;18.164;2022-09-13T04:02:02;140.80;;;27.50;;
57333;SDS011;43165;50.998;18.164;2022-09-13T04:04:28;142.00;;;32.00;;
57333;SDS011;43165;50.998;18.164;2022-09-13T04:06:54;108.20;;;32.80;;
57333;SDS011;43165;50.998;18.164;2022-09-13T04:09:23;129.80;;;32.80;;
57333;SDS011;43165;50.998;18.164;2022-09-13T04:11:49;136.10;;;34.90;;
57333;SDS011;43165;50.998;18.164;2022-09-13T04:14:14;196.10;;;37.60;;
57333;SDS011;43165;50.998;18.164;2022-09-13T04:16:40;179.80;;;36.50;;
57333;SDS011;43165;50.998;18.164;2022-09-13T04:19:06;105.00;;;35.70;;
57333;SDS011;43165;50.998;18.164;2022-09-13T04:21:31;255.10;;;32.60;;
57333;SDS011;43165;50.998;18.164;2022-09-13T04:23:57;395.10;;;30.60;;
57333;SDS011;43165;50.998;18.164;2022-09-13T04:26:22;324.90;;;24.80;;
57333;SDS011;43165;50.998;18.164;2022-09-13T04:28:48;302.00;;;23.20;;
57333;SDS011;43165;50.998;18.164;2022-09-13T04:31:13;227.60;;;24.10;;
57333;SDS011;43165;50.998;18.164;2022-09-13T04:33:39;303.20;;;26.40;;
57333;SDS011;43165;50.998;18.164;2022-09-13T04:36:05;326.90;;;29.10;;
57333;SDS011;43165;50.998;18.164;2022-09-13T04:38:31;288.10;;;29.30;;
57333;SDS011;43165;50.998;18.164;2022-09-13T04:40:56;282.90;;;30.40;;
57333;SDS011;43165;50.998;18.164;2022-09-13T04:43:22;158.60;;;29.00;;
57333;SDS011;43165;50.998;18.164;2022-09-13T04:45:48;108.40;;;29.10;;
57333;SDS011;43165;50.998;18.164;2022-09-13T04:48:14;67.00;;;27.90;;
57333;SDS011;43165;50.998;18.164;2022-09-13T04:50:40;31.80;;;25.80;;
57333;SDS011;43165;50.998;18.164;2022-09-13T04:53:05;27.60;;;23.90;;
57333;SDS011;43165;50.998;18.164;2022-09-13T04:55:31;22.90;;;20.30;;
57333;SDS011;43165;50.998;18.164;2022-09-13T04:57:56;20.00;;;18.10;;
57333;SDS011;43165;50.998;18.164;2022-09-13T05:00:22;16.80;;;15.60;;
57333;SDS011;43165;50.998;18.164;2022-09-13T05:02:54;15.20;;;14.10;;
57333;SDS011;43165;50.998;18.164;2022-09-13T05:05:21;15.40;;;14.00;;
57333;SDS011;43165;50.998;18.164;2022-09-13T05:07:50;13.40;;;12.20;;
57333;SDS011;43165;50.998;18.164;2022-09-13T05:10:16;17.40;;;12.30;;
57333;SDS011;43165;50.998;18.164;2022-09-13T05:12:42;15.10;;;13.50;;
57333;SDS011;43165;50.998;18.164;2022-09-13T05:15:08;15.30;;;13.80;;
57333;SDS011;43165;50.998;18.164;2022-09-13T05:17:34;21.10;;;16.90;;
57333;SDS011;43165;50.998;18.164;2022-09-13T05:20:00;23.10;;;19.10;;
57333;SDS011;43165;50.998;18.164;2022-09-13T05:22:26;22.40;;;17.50;;
57333;SDS011;43165;50.998;18.164;2022-09-13T05:24:51;20.00;;;17.30;;
57333;SDS011;43165;50.998;18.164;2022-09-13T05:27:16;18.50;;;16.80;;
57333;SDS011;43165;50.998;18.164;2022-09-13T05:29:42;16.80;;;15.10;;
57333;SDS011;43165;50.998;18.164;2022-09-13T05:32:08;14.70;;;13.30;;
57333;SDS011;43165;50.998;18.164;2022-09-13T05:34:33;14.40;;;13.00;;
57333;SDS011;43165;50.998;18.164;2022-09-13T05:36:58;14.70;;;12.90;;
57333;SDS011;43165;50.998;18.164;2022-09-13T05:39:24;14.40;;;13.10;;
57333;SDS011;43165;50.998;18.164;2022-09-13T05:41:49;33.00;;;15.50;;
57333;SDS011;43165;50.998;18.164;2022-09-13T05:44:15;23.00;;;20.30;;
57333;SDS011;43165;50.998;18.164;2022-09-13T05:46:40;29.80;;;24.50;;
57333;SDS011;43165;50.998;18.164;2022-09-13T05:49:07;25.40;;;22.50;;
57333;SDS011;43165;50.998;18.164;2022-09-13T05:51:32;24.50;;;21.50;;
57333;SDS011;43165;50.998;18.164;2022-09-13T05:53:58;21.60;;;19.60;;
57333;SDS011;43165;50.998;18.164;2022-09-13T05:56:24;20.20;;;15.80;;
57333;SDS011;43165;50.998;18.164;2022-09-13T05:58:52;16.60;;;13.60;;
57333;SDS011;43165;50.998;18.164;2022-09-13T06:01:20;12.30;;;11.30;;
57333;SDS011;43165;50.998;18.164;2022-09-13T06:03:47;14.20;;;13.10;;
57333;SDS011;43165;50.998;18.164;2022-09-13T06:06:17;13.80;;;12.30;;
57333;SDS011;43165;50.998;18.164;2022-09-13T06:08:43;13.40;;;11.00;;
57333;SDS011;43165;50.998;18.164;2022-09-13T06:11:10;11.50;;;9.80;;
57333;SDS011;43165;50.998;18.164;2022-09-13T06:13:37;11.50;;;10.50;;
57333;SDS011;43165;50.998;18.164;2022-09-13T06:16:04;11.40;;;10.00;;
57333;SDS011;43165;50.998;18.164;2022-09-13T06:18:31;13.60;;;10.80;;
57333;SDS011;43165;50.998;18.164;2022-09-13T06:21:01;15.60;;;13.50;;
57333;SDS011;43165;50.998;18.164;2022-09-13T06:23:28;30.00;;;16.20;;
57333;SDS011;43165;50.998;18.164;2022-09-13T06:26:04;24.60;;;22.10;;
57333;SDS011;43165;50.998;18.164;2022-09-13T06:28:31;35.60;;;27.20;;
57333;SDS011;43165;50.998;18.164;2022-09-13T06:31:01;30.60;;;23.80;;
57333;SDS011;43165;50.998;18.164;2022-09-13T06:33:31;51.30;;;37.60;;
57333;SDS011;43165;50.998;18.164;2022-09-13T06:36:00;23.10;;;20.70;;
57333;SDS011;43165;50.998;18.164;2022-09-13T06:38:35;25.00;;;22.50;;
57333;SDS011;43165;50.998;18.164;2022-09-13T06:41:05;25.30;;;23.10;;
57333;SDS011;43165;50.998;18.164;2022-09-13T06:43:32;25.30;;;22.70;;
57333;SDS011;43165;50.998;18.164;2022-09-13T06:46:08;38.00;;;27.70;;
57333;SDS011;43165;50.998;18.164;2022-09-13T06:48:38;25.70;;;22.00;;
57333;SDS011;43165;50.998;18.164;2022-09-13T06:51:15;29.00;;;25.70;;
57333;SDS011;43165;50.998;18.164;2022-09-13T06:53:43;77.70;;;57.50;;
57333;SDS011;43165;50.998;18.164;2022-09-13T06:58:45;20.80;;;13.40;;
57333;SDS011;43165;50.998;18.164;2022-09-13T07:01:29;15.20;;;11.70;;
57333;SDS011;43165;50.998;18.164;2022-09-13T07:04:03;12.10;;;11.10;;
57333;SDS011;43165;50.998;18.164;2022-09-13T07:06:30;11.50;;;10.50;;
57333;SDS011;43165;50.998;18.164;2022-09-13T07:08:59;10.50;;;9.60;;
57333;SDS011;43165;50.998;18.164;2022-09-13T07:11:27;12.70;;;10.70;;
57333;SDS011;43165;50.998;18.164;2022-09-13T07:13:57;12.40;;;11.30;;
57333;SDS011;43165;50.998;18.164;2022-09-13T07:16:24;14.10;;;13.10;;
57333;SDS011;43165;50.998;18.164;2022-09-13T07:18:54;12.80;;;11.60;;
57333;SDS011;43165;50.998;18.164;2022-09-13T07:21:21;11.50;;;10.40;;
57333;SDS011;43165;50.998;18.164;2022-09-13T07:23:47;25.40;;;13.70;;
57333;SDS011;43165;50.998;18.164;2022-09-13T07:26:14;9.30;;;8.40;;
57333;SDS011;43165;50.998;18.164;2022-09-13T07:28:40;11.20;;;8.40;;
57333;SDS011;43165;50.998;18.164;2022-09-13T07:33:41;7.80;;;7.20;;
57333;SDS011;43165;50.998;18.164;2022-09-13T07:36:08;9.30;;;8.30;;
57333;SDS011;43165;50.998;18.164;2022-09-13T07:38:36;7.80;;;6.90;;
57333;SDS011;43165;50.998;18.164;2022-09-13T07:41:06;7.60;;;7.10;;
57333;SDS011;43165;50.998;18.164;2022-09-13T07:43:34;7.70;;;7.10;;
57333;SDS011;43165;50.998;18.164;2022-09-13T07:46:04;6.50;;;6.00;;
57333;SDS011;43165;50.998;18.164;2022-09-13T07:48:34;7.10;;;6.40;;
57333;SDS011;43165;50.998;18.164;2022-09-13T07:51:05;7.00;;;6.40;;
57333;SDS011;43165;50.998;18.164;2022-09-13T07:53:33;10.20;;;6.50;;
57333;SDS011;43165;50.998;18.164;2022-09-13T07:56:07;7.90;;;7.30;;
57333;SDS011;43165;50.998;18.164;2022-09-13T07:58:35;9.40;;;7.70;;
57333;SDS011;43165;50.998;18.164;2022-09-13T08:01:24;7.40;;;6.80;;
57333;SDS011;43165;50.998;18.164;2022-09-13T08:03:57;6.90;;;6.30;;
57333;SDS011;43165;50.998;18.164;2022-09-13T08:06:24;6.20;;;5.50;;
57333;SDS011;43165;50.998;18.164;2022-09-13T08:08:52;6.50;;;6.00;;
57333;SDS011;43165;50.998;18.164;2022-09-13T08:11:19;7.40;;;4.90;;
57333;SDS011;43165;50.998;18.164;2022-09-13T08:13:47;6.60;;;5.70;;
57333;SDS011;43165;50.998;18.164;2022-09-13T08:16:13;7.10;;;5.10;;
57333;SDS011;43165;50.998;18.164;2022-09-13T08:18:43;8.50;;;7.90;;
57333;SDS011;43165;50.998;18.164;2022-09-13T08:21:10;5.40;;;5.00;;
57333;SDS011;43165;50.998;18.164;2022-09-13T08:23:36;4.30;;;3.90;;
57333;SDS011;43165;50.998;18.164;2022-09-13T08:26:05;5.50;;;5.10;;
57333;SDS011;43165;50.998;18.164;2022-09-13T08:28:32;4.80;;;4.30;;
57333;SDS011;43165;50.998;18.164;2022-09-13T08:31:03;7.50;;;6.80;;
57333;SDS011;43165;50.998;18.164;2022-09-13T08:33:30;6.60;;;5.70;;
57333;SDS011;43165;50.998;18.164;2022-09-13T08:35:56;5.30;;;4.90;;
57333;SDS011;43165;50.998;18.164;2022-09-13T08:38:22;4.10;;;3.70;;
57333;SDS011;43165;50.998;18.164;2022-09-13T08:43:50;3.90;;;3.60;;
57333;SDS011;43165;50.998;18.164;2022-09-13T08:46:24;4.50;;;3.60;;
57333;SDS011;43165;50.998;18.164;2022-09-13T08:48:53;5.50;;;3.90;;
57333;SDS011;43165;50.998;18.164;2022-09-13T08:51:27;5.00;;;4.10;;
57333;SDS011;43165;50.998;18.164;2022-09-13T08:53:54;6.70;;;3.80;;
57333;SDS011;43165;50.998;18.164;2022-09-13T09:01:45;4.90;;;3.90;;
57333;SDS011;43165;50.998;18.164;2022-09-13T09:04:16;4.20;;;3.90;;
57333;SDS011;43165;50.998;18.164;2022-09-13T09:06:55;4.00;;;3.50;;
57333;SDS011;43165;50.998;18.164;2022-09-13T09:09:25;4.30;;;3.80;;
57333;SDS011;43165;50.998;18.164;2022-09-13T09:11:53;3.50;;;3.20;;
57333;SDS011;43165;50.998;18.164;2022-09-13T09:14:29;3.90;;;3.20;;
57333;SDS011;43165;50.998;18.164;2022-09-13T09:16:57;7.60;;;7.00;;
57333;SDS011;43165;50.998;18.164;2022-09-13T09:19:27;11.60;;;10.60;;
57333;SDS011;43165;50.998;18.164;2022-09-13T09:21:55;5.80;;;5.20;;
57333;SDS011;43165;50.998;18.164;2022-09-13T09:24:23;4.20;;;3.50;;
57333;SDS011;43165;50.998;18.164;2022-09-13T09:26:50;5.30;;;4.90;;
57333;SDS011;43165;50.998;18.164;2022-09-13T09:29:19;46.50;;;6.10;;
57333;SDS011;43165;50.998;18.164;2022-09-13T09:35:09;4.40;;;4.00;;
57333;SDS011;43165;50.998;18.164;2022-09-13T09:38:06;3.80;;;3.50;;
57333;SDS011;43165;50.998;18.164;2022-09-13T09:40:55;6.20;;;3.50;;
57333;SDS011;43165;50.998;18.164;2022-09-13T09:43:24;5.30;;;3.90;;
57333;SDS011;43165;50.998;18.164;2022-09-13T09:45:57;12.40;;;4.10;;
57333;SDS011;43165;50.998;18.164;2022-09-13T09:48:26;3.70;;;3.40;;
57333;SDS011;43165;50.998;18.164;2022-09-13T09:50:56;6.40;;;3.60;;
57333;SDS011;43165;50.998;18.164;2022-09-13T09:53:42;4.70;;;3.60;;
57333;SDS011;43165;50.998;18.164;2022-09-13T09:56:17;4.30;;;3.40;;
57333;SDS011;43165;50.998;18.164;2022-09-13T09:58:55;4.50;;;3.40;;
57333;SDS011;43165;50.998;18.164;2022-09-13T10:01:34;5.60;;;3.40;;
57333;SDS011;43165;50.998;18.164;2022-09-13T10:04:05;4.90;;;3.50;;
57333;SDS011;43165;50.998;18.164;2022-09-13T10:06:41;10.50;;;3.50;;
57333;SDS011;43165;50.998;18.164;2022-09-13T10:09:17;4.70;;;3.40;;
57333;SDS011;43165;50.998;18.164;2022-09-13T10:11:47;13.30;;;7.50;;
57333;SDS011;43165;50.998;18.164;2022-09-13T10:19:37;5.50;;;2.90;;
57333;SDS011;43165;50.998;18.164;2022-09-13T10:22:03;3.80;;;3.50;;
57333;SDS011;43165;50.998;18.164;2022-09-13T10:24:32;4.10;;;3.20;;
57333;SDS011;43165;50.998;18.164;2022-09-13T10:26:58;4.60;;;4.20;;
57333;SDS011;43165;50.998;18.164;2022-09-13T10:29:28;5.20;;;3.50;;
57333;SDS011;43165;50.998;18.164;2022-09-13T10:31:54;4.70;;;3.40;;
57333;SDS011;43165;50.998;18.164;2022-09-13T10:37:03;3.50;;;3.20;;
57333;SDS011;43165;50.998;18.164;2022-09-13T10:39:49;3.90;;;3.50;;
57333;SDS011;43165;50.998;18.164;2022-09-13T10:42:20;4.80;;;3.20;;
57333;SDS011;43165;50.998;18.164;2022-09-13T10:44:54;3.90;;;3.30;;
57333;SDS011;43165;50.998;18.164;2022-09-13T10:47:22;3.50;;;2.70;;
57333;SDS011;43165;50.998;18.164;2022-09-13T10:52:29;6.90;;;3.30;;
57333;SDS011;43165;50.998;18.164;2022-09-13T10:55:14;3.90;;;3.40;;
57333;SDS011;43165;50.998;18.164;2022-09-13T10:57:50;4.60;;;3.40;;
57333;SDS011;43165;50.998;18.164;2022-09-13T11:00:22;6.00;;;3.20;;
57333;SDS011;43165;50.998;18.164;2022-09-13T11:17:41;4.00;;;3.60;;
57333;SDS011;43165;50.998;18.164;2022-09-13T11:30:50;7.60;;;7.10;;
57333;SDS011;43165;50.998;18.164;2022-09-13T11:34:04;10.70;;;5.60;;
57333;SDS011;43165;50.998;18.164;2022-09-13T11:45:01;5.50;;;4.10;;
57333;SDS011;43165;50.998;18.164;2022-09-13T11:47:38;4.30;;;4.10;;
57333;SDS011;43165;50.998;18.164;2022-09-13T11:53:08;10.70;;;4.20;;
57333;SDS011;43165;50.998;18.164;2022-09-13T11:55:53;4.40;;;3.80;;
57333;SDS011;43165;50.998;18.164;2022-09-13T11:58:36;6.00;;;3.60;;
57333;SDS011;43165;50.998;18.164;2022-09-13T12:01:10;4.50;;;4.10;;
57333;SDS011;43165;50.998;18.164;2022-09-13T12:06:42;6.60;;;3.80;;
57333;SDS011;43165;50.998;18.164;2022-09-13T12:09:15;4.90;;;3.50;;
57333;SDS011;43165;50.998;18.164;2022-09-13T12:12:04;6.70;;;3.80;;
57333;SDS011;43165;50.998;18.164;2022-09-13T12:14:42;4.30;;;4.00;;
57333;SDS011;43165;50.998;18.164;2022-09-13T12:17:34;3.60;;;3.10;;
57333;SDS011;43165;50.998;18.164;2022-09-13T12:20:00;4.30;;;3.80;;
57333;SDS011;43165;50.998;18.164;2022-09-13T12:22:29;4.30;;;3.90;;
57333;SDS011;43165;50.998;18.164;2022-09-13T12:24:58;5.80;;;4.50;;
57333;SDS011;43165;50.998;18.164;2022-09-13T12:28:15;5.30;;;3.20;;
57333;SDS011;43165;50.998;18.164;2022-09-13T12:30:22;12.00;;;3.90;;
57333;SDS011;43165;50.998;18.164;2022-09-13T12:32:50;9.80;;;2.70;;
57333;SDS011;43165;50.998;18.164;2022-09-13T12:35:24;5.60;;;3.10;;
57333;SDS011;43165;50.998;18.164;2022-09-13T12:41:03;4.60;;;3.00;;
57333;SDS011;43165;50.998;18.164;2022-09-13T12:46:25;5.60;;;2.90;;
57333;SDS011;43165;50.998;18.164;2022-09-13T13:00:07;4.60;;;3.70;;
57333;SDS011;43165;50.998;18.164;2022-09-13T13:03:00;4.00;;;3.40;;
57333;SDS011;43165;50.998;18.164;2022-09-13T13:08:06;4.40;;;3.30;;
57333;SDS011;43165;50.998;18.164;2022-09-13T13:10:41;3.40;;;3.10;;
57333;SDS011;43165;50.998;18.164;2022-09-13T13:13:11;5.60;;;3.00;;
57333;SDS011;43165;50.998;18.164;2022-09-13T13:18:21;4.50;;;4.10;;
57333;SDS011;43165;50.998;18.164;2022-09-13T13:26:43;4.90;;;3.00;;
57333;SDS011;43165;50.998;18.164;2022-09-13T13:29:12;4.40;;;2.60;;
57333;SDS011;43165;50.998;18.164;2022-09-13T13:31:41;8.10;;;3.00;;
57333;SDS011;43165;50.998;18.164;2022-09-13T13:49:44;5.30;;;3.10;;
57333;SDS011;43165;50.998;18.164;2022-09-13T13:54:59;5.00;;;3.00;;
57333;SDS011;43165;50.998;18.164;2022-09-13T14:00:20;3.60;;;3.30;;
57333;SDS011;43165;50.998;18.164;2022-09-13T14:07:50;3.00;;;2.80;;
57333;SDS011;43165;50.998;18.164;2022-09-13T14:10:46;4.30;;;3.40;;
57333;SDS011;43165;50.998;18.164;2022-09-13T14:16:34;3.50;;;3.20;;
57333;SDS011;43165;50.998;18.164;2022-09-13T14:22:10;4.00;;;3.20;;
57333;SDS011;43165;50.998;18.164;2022-09-13T14:24:38;7.00;;;3.60;;
57333;SDS011;43165;50.998;18.164;2022-09-13T14:27:12;4.10;;;3.80;;
57333;SDS011;43165;50.998;18.164;2022-09-13T14:29:43;5.50;;;4.30;;
57333;SDS011;43165;50.998;18.164;2022-09-13T14:32:10;4.90;;;4.40;;
57333;SDS011;43165;50.998;18.164;2022-09-13T14:34:48;6.70;;;5.10;;
57333;SDS011;43165;50.998;18.164;2022-09-13T14:37:17;5.70;;;4.70;;
57333;SDS011;43165;50.998;18.164;2022-09-13T14:39:54;11.30;;;6.50;;
57333;SDS011;43165;50.998;18.164;2022-09-13T14:42:19;7.50;;;6.80;;
57333;SDS011;43165;50.998;18.164;2022-09-13T14:44:45;5.70;;;5.00;;
57333;SDS011;43165;50.998;18.164;2022-09-13T14:49:42;12.00;;;5.90;;
57333;SDS011;43165;50.998;18.164;2022-09-13T14:55:15;6.40;;;5.30;;
57333;SDS011;43165;50.998;18.164;2022-09-13T14:57:45;5.40;;;4.90;;
57333;SDS011;43165;50.998;18.164;2022-09-13T15:00:17;4.90;;;3.90;;
57333;SDS011;43165;50.998;18.164;2022-09-13T15:02:48;4.00;;;3.70;;
57333;SDS011;43165;50.998;18.164;2022-09-13T15:05:18;5.00;;;4.00;;
57333;SDS011;43165;50.998;18.164;2022-09-13T15:07:45;4.90;;;4.50;;
57333;SDS011;43165;50.998;18.164;2022-09-13T15:12:36;7.80;;;5.70;;
57333;SDS011;43165;50.998;18.164;2022-09-13T15:21:00;4.60;;;4.20;;
57333;SDS011;43165;50.998;18.164;2022-09-13T15:23:37;6.70;;;4.60;;
57333;SDS011;43165;50.998;18.164;2022-09-13T15:31:05;4.20;;;3.80;;
57333;SDS011;43165;50.998;18.164;2022-09-13T15:33:31;4.30;;;4.00;;
57333;SDS011;43165;50.998;18.164;2022-09-13T15:41:32;5.40;;;4.20;;
57333;SDS011;43165;50.998;18.164;2022-09-13T15:44:03;4.30;;;3.90;;
57333;SDS011;43165;50.998;18.164;2022-09-13T15:46:35;5.70;;;5.10;;
57333;SDS011;43165;50.998;18.164;2022-09-13T15:49:08;7.80;;;5.30;;
57333;SDS011;43165;50.998;18.164;2022-09-13T15:51:40;10.80;;;6.10;;
57333;SDS011;43165;50.998;18.164;2022-09-13T15:54:09;9.90;;;5.60;;
57333;SDS011;43165;50.998;18.164;2022-09-13T15:56:37;7.80;;;6.30;;
57333;SDS011;43165;50.998;18.164;2022-09-13T15:59:06;10.90;;;6.40;;
57333;SDS011;43165;50.998;18.164;2022-09-13T16:01:31;8.80;;;6.90;;
57333;SDS011;43165;50.998;18.164;2022-09-13T16:03:56;7.10;;;6.60;;
57333;SDS011;43165;50.998;18.164;2022-09-13T16:06:22;8.50;;;7.20;;
57333;SDS011;43165;50.998;18.164;2022-09-13T16:08:48;8.80;;;8.00;;
57333;SDS011;43165;50.998;18.164;2022-09-13T16:11:13;13.40;;;8.60;;
57333;SDS011;43165;50.998;18.164;2022-09-13T16:13:39;11.00;;;9.20;;
57333;SDS011;43165;50.998;18.164;2022-09-13T16:16:04;11.30;;;9.90;;
57333;SDS011;43165;50.998;18.164;2022-09-13T16:18:30;15.70;;;12.00;;
57333;SDS011;43165;50.998;18.164;2022-09-13T16:20:56;16.10;;;12.70;;
57333;SDS011;43165;50.998;18.164;2022-09-13T16:23:21;11.30;;;10.30;;
57333;SDS011;43165;50.998;18.164;2022-09-13T16:25:48;10.20;;;9.30;;
57333;SDS011;43165;50.998;18.164;2022-09-13T16:28:21;9.20;;;8.30;;
57333;SDS011;43165;50.998;18.164;2022-09-13T16:30:46;7.10;;;6.60;;
57333;SDS011;43165;50.998;18.164;2022-09-13T16:33:13;7.90;;;6.80;;
57333;SDS011;43165;50.998;18.164;2022-09-13T16:35:39;7.80;;;6.80;;
57333;SDS011;43165;50.998;18.164;2022-09-13T16:38:04;8.80;;;7.60;;
57333;SDS011;43165;50.998;18.164;2022-09-13T16:40:30;10.20;;;7.30;;
57333;SDS011;43165;50.998;18.164;2022-09-13T16:42:56;10.50;;;9.70;;
57333;SDS011;43165;50.998;18.164;2022-09-13T16:45:21;11.80;;;9.30;;
57333;SDS011;43165;50.998;18.164;2022-09-13T16:47:48;16.90;;;14.70;;
57333;SDS011;43165;50.998;18.164;2022-09-13T16:50:14;16.80;;;15.20;;
57333;SDS011;43165;50.998;18.164;2022-09-13T16:52:40;7.30;;;6.80;;
57333;SDS011;43165;50.998;18.164;2022-09-13T16:55:06;7.70;;;7.20;;
57333;SDS011;43165;50.998;18.164;2022-09-13T16:57:32;8.60;;;7.90;;
57333;SDS011;43165;50.998;18.164;2022-09-13T16:59:59;9.10;;;8.30;;
57333;SDS011;43165;50.998;18.164;2022-09-13T17:02:25;10.20;;;9.00;;
57333;SDS011;43165;50.998;18.164;2022-09-13T17:04:50;10.30;;;9.20;;
57333;SDS011;43165;50.998;18.164;2022-09-13T17:07:16;16.00;;;14.10;;
57333;SDS011;43165;50.998;18.164;2022-09-13T17:09:42;9.20;;;8.60;;
57333;SDS011;43165;50.998;18.164;2022-09-13T17:12:08;8.00;;;7.40;;
57333;SDS011;43165;50.998;18.164;2022-09-13T17:14:34;8.60;;;7.90;;
57333;SDS011;43165;50.998;18.164;2022-09-13T17:17:01;13.20;;;8.30;;
57333;SDS011;43165;50.998;18.164;2022-09-13T17:19:29;11.30;;;9.40;;
57333;SDS011;43165;50.998;18.164;2022-09-13T17:21:58;13.30;;;9.20;;
57333;SDS011;43165;50.998;18.164;2022-09-13T17:24:25;14.30;;;10.80;;
57333;SDS011;43165;50.998;18.164;2022-09-13T17:26:52;25.20;;;11.90;;
57333;SDS011;43165;50.998;18.164;2022-09-13T17:29:18;11.50;;;10.40;;
57333;SDS011;43165;50.998;18.164;2022-09-13T17:31:44;10.70;;;9.60;;
57333;SDS011;43165;50.998;18.164;2022-09-13T17:34:11;15.80;;;11.50;;
57333;SDS011;43165;50.998;18.164;2022-09-13T17:36:40;8.80;;;7.80;;
57333;SDS011;43165;50.998;18.164;2022-09-13T17:39:06;9.80;;;8.90;;
57333;SDS011;43165;50.998;18.164;2022-09-13T17:41:31;8.60;;;7.50;;
57333;SDS011;43165;50.998;18.164;2022-09-13T17:43:57;7.10;;;6.50;;
57333;SDS011;43165;50.998;18.164;2022-09-13T17:46:24;9.00;;;6.80;;
57333;SDS011;43165;50.998;18.164;2022-09-13T17:48:52;8.50;;;7.70;;
57333;SDS011;43165;50.998;18.164;2022-09-13T17:51:20;9.50;;;8.30;;
57333;SDS011;43165;50.998;18.164;2022-09-13T17:53:48;9.10;;;8.10;;
57333;SDS011;43165;50.998;18.164;2022-09-13T17:56:15;9.40;;;8.40;;
57333;SDS011;43165;50.998;18.164;2022-09-13T17:58:42;9.60;;;8.50;;
57333;SDS011;43165;50.998;18.164;2022-09-13T18:01:08;10.90;;;9.10;;
57333;SDS011;43165;50.998;18.164;2022-09-13T18:03:34;9.60;;;8.80;;